Bearsdale, Illinois
Current Conditions -  °F | °C
As of 3:54 AM on Sunday 25 Jan 2015 (Local Time) from KDEC Reporting Station
Overcast Overcast  
Wind Chill: 37°   Ceiling: 8500
Heat Index: 37°   Visibility: 10mi
Dew Point: 32°   Wind: 3mph
Humidity: 82%   Direction: 190°S
Pressure: 29.61"   Gusts: NA
Location:  39.9062°N, 88.9645°W
Report Text: KDEC 250954Z AUTO 19003KT 10SM OVC085 03/00 A2961 RMK AO2 SLP029 T00280000 TSNO
Loading
Personal Weather Stations






























Interactive Weather Map New forecast layout! Learn more

10-Day Weather Forecast

Advertisements
Track Severe Weather on mobile